sensor_id;sensor_type;location;lat;lon;timestamp;P1;durP1;ratioP1;P2;durP2;ratioP2
48765;SDS011;65794;51.836;5.002;2023-08-06T00:00:31;10.07;;;4.50;;
48765;SDS011;65794;51.836;5.002;2023-08-06T00:02:58;10.60;;;4.88;;
48765;SDS011;65794;51.836;5.002;2023-08-06T00:05:25;10.50;;;5.22;;
48765;SDS011;65794;51.836;5.002;2023-08-06T00:07:54;8.80;;;4.80;;
48765;SDS011;65794;51.836;5.002;2023-08-06T00:10:22;7.82;;;4.70;;
48765;SDS011;65794;51.836;5.002;2023-08-06T00:12:48;8.52;;;3.95;;
48765;SDS011;65794;51.836;5.002;2023-08-06T00:15:16;9.55;;;4.35;;
48765;SDS011;65794;51.836;5.002;2023-08-06T00:17:42;8.45;;;4.15;;
48765;SDS011;65794;51.836;5.002;2023-08-06T00:20:09;7.53;;;4.38;;
48765;SDS011;65794;51.836;5.002;2023-08-06T00:22:37;7.35;;;4.38;;
48765;SDS011;65794;51.836;5.002;2023-08-06T00:25:04;9.65;;;4.53;;
48765;SDS011;65794;51.836;5.002;2023-08-06T00:27:32;7.30;;;4.13;;
48765;SDS011;65794;51.836;5.002;2023-08-06T00:29:59;8.98;;;3.90;;
48765;SDS011;65794;51.836;5.002;2023-08-06T00:32:27;9.48;;;4.18;;
48765;SDS011;65794;51.836;5.002;2023-08-06T00:34:55;8.45;;;4.20;;
48765;SDS011;65794;51.836;5.002;2023-08-06T00:37:22;8.48;;;4.40;;
48765;SDS011;65794;51.836;5.002;2023-08-06T00:39:48;10.05;;;4.50;;
48765;SDS011;65794;51.836;5.002;2023-08-06T00:42:15;11.00;;;4.40;;
48765;SDS011;65794;51.836;5.002;2023-08-06T00:44:47;8.20;;;3.95;;
48765;SDS011;65794;51.836;5.002;2023-08-06T00:47:14;7.05;;;4.03;;
48765;SDS011;65794;51.836;5.002;2023-08-06T00:49:41;8.60;;;3.58;;
48765;SDS011;65794;51.836;5.002;2023-08-06T00:52:07;6.70;;;3.67;;
48765;SDS011;65794;51.836;5.002;2023-08-06T00:54:36;6.32;;;3.92;;
48765;SDS011;65794;51.836;5.002;2023-08-06T00:57:03;6.50;;;3.40;;
48765;SDS011;65794;51.836;5.002;2023-08-06T00:59:31;6.57;;;3.47;;
48765;SDS011;65794;51.836;5.002;2023-08-06T01:01:58;5.40;;;2.88;;
48765;SDS011;65794;51.836;5.002;2023-08-06T01:04:25;5.60;;;3.25;;
48765;SDS011;65794;51.836;5.002;2023-08-06T01:09:43;4.63;;;2.70;;
48765;SDS011;65794;51.836;5.002;2023-08-06T01:12:24;5.15;;;2.80;;
48765;SDS011;65794;51.836;5.002;2023-08-06T01:17:22;9.32;;;3.17;;
48765;SDS011;65794;51.836;5.002;2023-08-06T01:19:50;8.55;;;3.50;;
48765;SDS011;65794;51.836;5.002;2023-08-06T01:22:17;7.65;;;3.65;;
48765;SDS011;65794;51.836;5.002;2023-08-06T01:24:46;11.60;;;4.22;;
48765;SDS011;65794;51.836;5.002;2023-08-06T01:27:16;7.68;;;3.50;;
48765;SDS011;65794;51.836;5.002;2023-08-06T01:29:56;7.63;;;4.00;;
48765;SDS011;65794;51.836;5.002;2023-08-06T01:32:24;8.32;;;5.10;;
48765;SDS011;65794;51.836;5.002;2023-08-06T01:34:51;10.20;;;5.35;;
48765;SDS011;65794;51.836;5.002;2023-08-06T01:37:19;9.35;;;5.70;;
48765;SDS011;65794;51.836;5.002;2023-08-06T01:39:46;9.23;;;5.30;;
48765;SDS011;65794;51.836;5.002;2023-08-06T01:42:12;11.73;;;4.75;;
48765;SDS011;65794;51.836;5.002;2023-08-06T01:44:39;10.73;;;5.22;;
48765;SDS011;65794;51.836;5.002;2023-08-06T01:47:06;9.82;;;5.10;;
48765;SDS011;65794;51.836;5.002;2023-08-06T01:49:33;10.52;;;5.38;;
48765;SDS011;65794;51.836;5.002;2023-08-06T01:52:00;11.93;;;6.10;;
48765;SDS011;65794;51.836;5.002;2023-08-06T01:54:27;10.32;;;5.72;;
48765;SDS011;65794;51.836;5.002;2023-08-06T01:56:54;14.10;;;6.20;;
48765;SDS011;65794;51.836;5.002;2023-08-06T01:59:21;13.23;;;5.95;;
48765;SDS011;65794;51.836;5.002;2023-08-06T02:01:48;8.55;;;4.95;;
48765;SDS011;65794;51.836;5.002;2023-08-06T02:04:15;10.73;;;5.03;;
48765;SDS011;65794;51.836;5.002;2023-08-06T02:06:41;10.48;;;5.35;;
48765;SDS011;65794;51.836;5.002;2023-08-06T02:09:08;8.68;;;4.88;;
48765;SDS011;65794;51.836;5.002;2023-08-06T02:11:35;7.90;;;5.25;;
48765;SDS011;65794;51.836;5.002;2023-08-06T02:14:02;8.98;;;5.22;;
48765;SDS011;65794;51.836;5.002;2023-08-06T02:16:29;13.65;;;5.22;;
48765;SDS011;65794;51.836;5.002;2023-08-06T02:18:56;8.05;;;5.13;;
48765;SDS011;65794;51.836;5.002;2023-08-06T02:21:25;10.75;;;5.57;;
48765;SDS011;65794;51.836;5.002;2023-08-06T02:23:53;9.57;;;5.38;;
48765;SDS011;65794;51.836;5.002;2023-08-06T02:26:20;10.25;;;5.22;;
48765;SDS011;65794;51.836;5.002;2023-08-06T02:28:47;8.95;;;5.50;;
48765;SDS011;65794;51.836;5.002;2023-08-06T02:31:14;17.10;;;5.93;;
48765;SDS011;65794;51.836;5.002;2023-08-06T02:33:41;11.95;;;5.60;;
48765;SDS011;65794;51.836;5.002;2023-08-06T02:36:07;12.45;;;6.18;;
48765;SDS011;65794;51.836;5.002;2023-08-06T02:38:34;13.05;;;6.00;;
48765;SDS011;65794;51.836;5.002;2023-08-06T02:41:02;13.57;;;6.05;;
48765;SDS011;65794;51.836;5.002;2023-08-06T02:43:29;10.77;;;6.53;;
48765;SDS011;65794;51.836;5.002;2023-08-06T02:45:56;11.07;;;6.13;;
48765;SDS011;65794;51.836;5.002;2023-08-06T02:48:23;8.45;;;6.30;;
48765;SDS011;65794;51.836;5.002;2023-08-06T02:50:50;13.05;;;6.93;;
48765;SDS011;65794;51.836;5.002;2023-08-06T02:53:17;9.23;;;6.47;;
48765;SDS011;65794;51.836;5.002;2023-08-06T02:55:46;9.65;;;6.35;;
48765;SDS011;65794;51.836;5.002;2023-08-06T02:58:20;10.75;;;7.13;;
48765;SDS011;65794;51.836;5.002;2023-08-06T03:01:03;11.40;;;7.20;;
48765;SDS011;65794;51.836;5.002;2023-08-06T03:03:36;10.98;;;6.20;;
48765;SDS011;65794;51.836;5.002;2023-08-06T03:06:04;9.40;;;6.30;;
48765;SDS011;65794;51.836;5.002;2023-08-06T03:08:38;10.65;;;7.05;;
48765;SDS011;65794;51.836;5.002;2023-08-06T03:11:06;9.70;;;6.75;;
48765;SDS011;65794;51.836;5.002;2023-08-06T03:13:33;12.32;;;7.13;;
48765;SDS011;65794;51.836;5.002;2023-08-06T03:16:00;10.23;;;7.53;;
48765;SDS011;65794;51.836;5.002;2023-08-06T03:18:29;10.40;;;7.50;;
48765;SDS011;65794;51.836;5.002;2023-08-06T03:21:00;10.55;;;7.20;;
48765;SDS011;65794;51.836;5.002;2023-08-06T03:23:29;11.32;;;7.45;;
48765;SDS011;65794;51.836;5.002;2023-08-06T03:26:00;10.48;;;7.43;;
48765;SDS011;65794;51.836;5.002;2023-08-06T03:28:28;14.35;;;8.38;;
48765;SDS011;65794;51.836;5.002;2023-08-06T03:30:59;13.55;;;8.35;;
48765;SDS011;65794;51.836;5.002;2023-08-06T03:33:27;13.25;;;8.27;;
48765;SDS011;65794;51.836;5.002;2023-08-06T03:35:56;12.27;;;8.82;;
48765;SDS011;65794;51.836;5.002;2023-08-06T03:38:23;18.77;;;10.25;;
48765;SDS011;65794;51.836;5.002;2023-08-06T03:40:50;16.30;;;10.48;;
48765;SDS011;65794;51.836;5.002;2023-08-06T03:43:17;17.35;;;11.05;;
48765;SDS011;65794;51.836;5.002;2023-08-06T03:45:45;19.95;;;11.15;;
48765;SDS011;65794;51.836;5.002;2023-08-06T03:48:12;17.02;;;9.90;;
48765;SDS011;65794;51.836;5.002;2023-08-06T03:50:39;14.95;;;10.63;;
48765;SDS011;65794;51.836;5.002;2023-08-06T03:53:10;18.65;;;11.00;;
48765;SDS011;65794;51.836;5.002;2023-08-06T03:55:37;20.48;;;11.48;;
48765;SDS011;65794;51.836;5.002;2023-08-06T03:58:04;26.13;;;10.85;;
48765;SDS011;65794;51.836;5.002;2023-08-06T04:00:31;18.85;;;11.48;;
48765;SDS011;65794;51.836;5.002;2023-08-06T04:02:58;15.52;;;11.15;;
48765;SDS011;65794;51.836;5.002;2023-08-06T04:05:27;17.08;;;11.50;;
48765;SDS011;65794;51.836;5.002;2023-08-06T04:07:54;20.55;;;11.88;;
48765;SDS011;65794;51.836;5.002;2023-08-06T04:10:21;22.45;;;13.68;;
48765;SDS011;65794;51.836;5.002;2023-08-06T04:12:47;18.48;;;11.95;;
48765;SDS011;65794;51.836;5.002;2023-08-06T04:15:14;18.30;;;11.90;;
48765;SDS011;65794;51.836;5.002;2023-08-06T04:17:41;20.83;;;13.02;;
48765;SDS011;65794;51.836;5.002;2023-08-06T04:20:08;20.65;;;12.40;;
48765;SDS011;65794;51.836;5.002;2023-08-06T04:22:36;24.50;;;13.13;;
48765;SDS011;65794;51.836;5.002;2023-08-06T04:25:03;18.60;;;12.52;;
48765;SDS011;65794;51.836;5.002;2023-08-06T04:27:30;16.10;;;12.10;;
48765;SDS011;65794;51.836;5.002;2023-08-06T04:29:57;19.10;;;12.35;;
48765;SDS011;65794;51.836;5.002;2023-08-06T04:32:25;17.80;;;11.10;;
48765;SDS011;65794;51.836;5.002;2023-08-06T04:34:55;21.25;;;11.68;;
48765;SDS011;65794;51.836;5.002;2023-08-06T04:37:22;19.90;;;10.55;;
48765;SDS011;65794;51.836;5.002;2023-08-06T04:39:49;12.43;;;8.32;;
48765;SDS011;65794;51.836;5.002;2023-08-06T04:42:17;15.18;;;8.00;;
48765;SDS011;65794;51.836;5.002;2023-08-06T04:44:44;13.77;;;7.40;;
48765;SDS011;65794;51.836;5.002;2023-08-06T04:47:11;12.45;;;7.82;;
48765;SDS011;65794;51.836;5.002;2023-08-06T04:49:38;12.38;;;7.28;;
48765;SDS011;65794;51.836;5.002;2023-08-06T04:52:05;13.13;;;8.57;;
48765;SDS011;65794;51.836;5.002;2023-08-06T04:54:32;13.30;;;8.32;;
48765;SDS011;65794;51.836;5.002;2023-08-06T04:56:59;11.30;;;7.78;;
48765;SDS011;65794;51.836;5.002;2023-08-06T04:59:26;14.27;;;6.88;;
48765;SDS011;65794;51.836;5.002;2023-08-06T05:01:52;12.20;;;7.10;;
48765;SDS011;65794;51.836;5.002;2023-08-06T05:04:19;10.40;;;6.43;;
48765;SDS011;65794;51.836;5.002;2023-08-06T05:06:47;11.73;;;6.88;;
48765;SDS011;65794;51.836;5.002;2023-08-06T05:09:14;9.15;;;6.63;;
48765;SDS011;65794;51.836;5.002;2023-08-06T05:11:41;20.50;;;5.93;;
48765;SDS011;65794;51.836;5.002;2023-08-06T05:14:08;5.20;;;3.55;;
48765;SDS011;65794;51.836;5.002;2023-08-06T05:16:35;4.90;;;4.40;;
48765;SDS011;65794;51.836;5.002;2023-08-06T05:19:02;5.10;;;4.70;;
48765;SDS011;65794;51.836;5.002;2023-08-06T05:21:29;7.60;;;6.80;;
48765;SDS011;65794;51.836;5.002;2023-08-06T05:23:56;16.42;;;5.95;;
48765;SDS011;65794;51.836;5.002;2023-08-06T05:26:23;5.93;;;5.35;;
48765;SDS011;65794;51.836;5.002;2023-08-06T05:28:50;11.13;;;5.72;;
48765;SDS011;65794;51.836;5.002;2023-08-06T05:31:16;9.07;;;6.25;;
48765;SDS011;65794;51.836;5.002;2023-08-06T05:33:43;14.52;;;6.15;;
48765;SDS011;65794;51.836;5.002;2023-08-06T05:36:10;19.60;;;6.82;;
48765;SDS011;65794;51.836;5.002;2023-08-06T05:38:37;14.50;;;7.25;;
48765;SDS011;65794;51.836;5.002;2023-08-06T05:41:04;11.68;;;6.90;;
48765;SDS011;65794;51.836;5.002;2023-08-06T05:43:31;16.15;;;8.07;;
48765;SDS011;65794;51.836;5.002;2023-08-06T05:45:58;14.63;;;7.60;;
48765;SDS011;65794;51.836;5.002;2023-08-06T05:48:25;18.55;;;7.68;;
48765;SDS011;65794;51.836;5.002;2023-08-06T05:50:52;8.95;;;6.18;;
48765;SDS011;65794;51.836;5.002;2023-08-06T05:53:19;13.15;;;6.35;;
48765;SDS011;65794;51.836;5.002;2023-08-06T05:55:47;14.80;;;6.60;;
48765;SDS011;65794;51.836;5.002;2023-08-06T05:58:13;10.73;;;6.30;;
48765;SDS011;65794;51.836;5.002;2023-08-06T06:00:40;9.88;;;6.50;;
48765;SDS011;65794;51.836;5.002;2023-08-06T06:03:07;14.10;;;5.70;;
48765;SDS011;65794;51.836;5.002;2023-08-06T06:05:37;9.95;;;5.22;;
48765;SDS011;65794;51.836;5.002;2023-08-06T06:08:03;6.60;;;3.95;;
48765;SDS011;65794;51.836;5.002;2023-08-06T06:10:30;8.02;;;4.30;;
48765;SDS011;65794;51.836;5.002;2023-08-06T06:12:57;6.38;;;4.15;;
48765;SDS011;65794;51.836;5.002;2023-08-06T06:15:24;6.65;;;4.22;;
48765;SDS011;65794;51.836;5.002;2023-08-06T06:17:51;5.60;;;3.85;;
48765;SDS011;65794;51.836;5.002;2023-08-06T06:20:18;6.57;;;4.07;;
48765;SDS011;65794;51.836;5.002;2023-08-06T06:22:45;7.15;;;4.38;;
48765;SDS011;65794;51.836;5.002;2023-08-06T06:25:12;9.38;;;4.90;;
48765;SDS011;65794;51.836;5.002;2023-08-06T06:27:38;8.75;;;5.03;;
48765;SDS011;65794;51.836;5.002;2023-08-06T06:30:06;8.98;;;5.20;;
48765;SDS011;65794;51.836;5.002;2023-08-06T06:32:33;7.70;;;4.50;;
48765;SDS011;65794;51.836;5.002;2023-08-06T06:35:00;10.32;;;5.30;;
48765;SDS011;65794;51.836;5.002;2023-08-06T06:37:27;13.18;;;5.95;;
48765;SDS011;65794;51.836;5.002;2023-08-06T06:39:54;9.88;;;5.45;;
48765;SDS011;65794;51.836;5.002;2023-08-06T06:42:21;9.80;;;5.78;;
48765;SDS011;65794;51.836;5.002;2023-08-06T06:44:51;10.93;;;6.38;;
48765;SDS011;65794;51.836;5.002;2023-08-06T06:47:18;9.02;;;5.88;;
48765;SDS011;65794;51.836;5.002;2023-08-06T06:49:45;13.32;;;5.70;;
48765;SDS011;65794;51.836;5.002;2023-08-06T06:52:12;12.18;;;6.15;;
48765;SDS011;65794;51.836;5.002;2023-08-06T06:54:39;10.45;;;5.68;;
48765;SDS011;65794;51.836;5.002;2023-08-06T06:57:06;9.27;;;5.25;;
48765;SDS011;65794;51.836;5.002;2023-08-06T06:59:32;8.80;;;5.25;;
48765;SDS011;65794;51.836;5.002;2023-08-06T07:02:00;14.02;;;5.43;;
48765;SDS011;65794;51.836;5.002;2023-08-06T07:04:26;12.85;;;5.60;;
48765;SDS011;65794;51.836;5.002;2023-08-06T07:06:53;11.43;;;5.13;;
48765;SDS011;65794;51.836;5.002;2023-08-06T07:09:20;10.30;;;5.32;;
48765;SDS011;65794;51.836;5.002;2023-08-06T07:11:47;15.27;;;5.30;;
48765;SDS011;65794;51.836;5.002;2023-08-06T07:14:14;15.25;;;5.97;;
48765;SDS011;65794;51.836;5.002;2023-08-06T07:16:41;10.82;;;5.53;;
48765;SDS011;65794;51.836;5.002;2023-08-06T07:19:08;8.90;;;5.22;;
48765;SDS011;65794;51.836;5.002;2023-08-06T07:21:35;12.85;;;5.45;;
48765;SDS011;65794;51.836;5.002;2023-08-06T07:24:02;12.40;;;4.97;;
48765;SDS011;65794;51.836;5.002;2023-08-06T07:26:29;10.95;;;5.78;;
48765;SDS011;65794;51.836;5.002;2023-08-06T07:28:56;11.43;;;5.13;;
48765;SDS011;65794;51.836;5.002;2023-08-06T07:31:23;11.82;;;5.40;;
48765;SDS011;65794;51.836;5.002;2023-08-06T07:33:50;7.82;;;4.95;;
48765;SDS011;65794;51.836;5.002;2023-08-06T07:36:17;8.95;;;4.68;;
48765;SDS011;65794;51.836;5.002;2023-08-06T07:38:43;9.82;;;4.63;;
48765;SDS011;65794;51.836;5.002;2023-08-06T07:41:10;14.30;;;4.90;;
48765;SDS011;65794;51.836;5.002;2023-08-06T07:43:37;12.98;;;5.03;;
48765;SDS011;65794;51.836;5.002;2023-08-06T07:46:04;12.02;;;4.90;;
48765;SDS011;65794;51.836;5.002;2023-08-06T07:48:32;6.95;;;4.38;;
48765;SDS011;65794;51.836;5.002;2023-08-06T07:50:59;12.43;;;4.45;;
48765;SDS011;65794;51.836;5.002;2023-08-06T07:53:26;13.40;;;4.63;;
48765;SDS011;65794;51.836;5.002;2023-08-06T07:55:54;7.40;;;3.58;;
48765;SDS011;65794;51.836;5.002;2023-08-06T07:58:21;8.63;;;3.55;;
48765;SDS011;65794;51.836;5.002;2023-08-06T08:00:48;12.88;;;3.90;;
48765;SDS011;65794;51.836;5.002;2023-08-06T08:03:15;6.30;;;3.25;;
48765;SDS011;65794;51.836;5.002;2023-08-06T08:05:43;9.02;;;3.13;;
48765;SDS011;65794;51.836;5.002;2023-08-06T08:08:10;13.35;;;3.95;;
48765;SDS011;65794;51.836;5.002;2023-08-06T08:10:37;9.98;;;3.10;;
48765;SDS011;65794;51.836;5.002;2023-08-06T08:13:05;7.93;;;2.90;;
48765;SDS011;65794;51.836;5.002;2023-08-06T08:15:32;7.35;;;2.65;;
48765;SDS011;65794;51.836;5.002;2023-08-06T08:17:59;5.57;;;2.92;;
48765;SDS011;65794;51.836;5.002;2023-08-06T08:20:26;7.70;;;2.63;;
48765;SDS011;65794;51.836;5.002;2023-08-06T08:22:59;10.05;;;2.88;;
48765;SDS011;65794;51.836;5.002;2023-08-06T08:25:27;9.15;;;2.30;;
48765;SDS011;65794;51.836;5.002;2023-08-06T08:27:57;7.13;;;2.15;;
48765;SDS011;65794;51.836;5.002;2023-08-06T08:30:24;6.82;;;2.67;;
48765;SDS011;65794;51.836;5.002;2023-08-06T08:32:52;6.80;;;2.20;;
48765;SDS011;65794;51.836;5.002;2023-08-06T08:35:19;6.68;;;1.70;;
48765;SDS011;65794;51.836;5.002;2023-08-06T08:37:46;7.03;;;2.15;;
48765;SDS011;65794;51.836;5.002;2023-08-06T08:40:14;7.38;;;2.03;;
48765;SDS011;65794;51.836;5.002;2023-08-06T08:42:41;4.68;;;2.15;;
48765;SDS011;65794;51.836;5.002;2023-08-06T08:45:11;7.63;;;1.95;;
48765;SDS011;65794;51.836;5.002;2023-08-06T08:47:39;10.88;;;2.42;;
48765;SDS011;65794;51.836;5.002;2023-08-06T08:50:06;7.63;;;2.10;;
48765;SDS011;65794;51.836;5.002;2023-08-06T08:52:35;6.45;;;1.77;;
48765;SDS011;65794;51.836;5.002;2023-08-06T08:55:02;11.93;;;2.03;;
48765;SDS011;65794;51.836;5.002;2023-08-06T08:57:29;4.38;;;1.75;;
48765;SDS011;65794;51.836;5.002;2023-08-06T08:59:56;4.38;;;1.50;;
48765;SDS011;65794;51.836;5.002;2023-08-06T09:02:23;5.95;;;1.80;;
48765;SDS011;65794;51.836;5.002;2023-08-06T09:04:51;7.20;;;1.85;;
48765;SDS011;65794;51.836;5.002;2023-08-06T09:07:19;3.15;;;1.42;;
48765;SDS011;65794;51.836;5.002;2023-08-06T09:09:48;3.95;;;1.25;;
48765;SDS011;65794;51.836;5.002;2023-08-06T09:12:16;4.75;;;1.45;;
48765;SDS011;65794;51.836;5.002;2023-08-06T09:14:43;8.27;;;2.00;;
48765;SDS011;65794;51.836;5.002;2023-08-06T09:17:10;4.68;;;1.80;;
48765;SDS011;65794;51.836;5.002;2023-08-06T09:19:37;4.13;;;1.67;;
48765;SDS011;65794;51.836;5.002;2023-08-06T09:22:04;6.38;;;1.88;;
48765;SDS011;65794;51.836;5.002;2023-08-06T09:24:38;9.60;;;2.28;;
48765;SDS011;65794;51.836;5.002;2023-08-06T09:27:05;4.03;;;1.33;;
48765;SDS011;65794;51.836;5.002;2023-08-06T09:29:31;6.30;;;1.98;;
48765;SDS011;65794;51.836;5.002;2023-08-06T09:31:59;2.58;;;1.17;;
48765;SDS011;65794;51.836;5.002;2023-08-06T09:34:26;4.85;;;1.45;;
48765;SDS011;65794;51.836;5.002;2023-08-06T09:36:53;5.75;;;1.45;;
48765;SDS011;65794;51.836;5.002;2023-08-06T09:39:21;3.20;;;1.33;;
48765;SDS011;65794;51.836;5.002;2023-08-06T09:41:48;5.85;;;1.88;;
48765;SDS011;65794;51.836;5.002;2023-08-06T09:44:22;3.33;;;1.27;;
48765;SDS011;65794;51.836;5.002;2023-08-06T09:46:56;4.60;;;1.50;;
48765;SDS011;65794;51.836;5.002;2023-08-06T09:49:27;2.40;;;1.10;;
48765;SDS011;65794;51.836;5.002;2023-08-06T09:51:54;3.03;;;1.33;;
48765;SDS011;65794;51.836;5.002;2023-08-06T09:54:23;6.03;;;1.45;;
48765;SDS011;65794;51.836;5.002;2023-08-06T09:56:54;3.20;;;1.40;;
48765;SDS011;65794;51.836;5.002;2023-08-06T09:59:21;6.47;;;1.70;;
48765;SDS011;65794;51.836;5.002;2023-08-06T10:01:48;6.03;;;1.85;;
48765;SDS011;65794;51.836;5.002;2023-08-06T10:04:15;8.70;;;1.60;;
48765;SDS011;65794;51.836;5.002;2023-08-06T10:06:51;9.05;;;1.88;;
48765;SDS011;65794;51.836;5.002;2023-08-06T10:09:19;6.20;;;1.38;;
48765;SDS011;65794;51.836;5.002;2023-08-06T10:11:49;12.85;;;2.08;;
48765;SDS011;65794;51.836;5.002;2023-08-06T10:14:18;3.60;;;1.55;;
48765;SDS011;65794;51.836;5.002;2023-08-06T10:16:46;3.03;;;1.40;;
48765;SDS011;65794;51.836;5.002;2023-08-06T10:19:13;8.05;;;1.65;;
48765;SDS011;65794;51.836;5.002;2023-08-06T10:22:05;3.58;;;1.42;;
48765;SDS011;65794;51.836;5.002;2023-08-06T10:24:44;5.22;;;1.85;;
48765;SDS011;65794;51.836;5.002;2023-08-06T10:27:11;3.97;;;1.15;;
48765;SDS011;65794;51.836;5.002;2023-08-06T10:29:38;5.40;;;1.10;;
48765;SDS011;65794;51.836;5.002;2023-08-06T10:32:05;4.20;;;1.25;;
48765;SDS011;65794;51.836;5.002;2023-08-06T10:37:18;4.50;;;1.20;;
48765;SDS011;65794;51.836;5.002;2023-08-06T10:39:49;2.85;;;1.08;;
48765;SDS011;65794;51.836;5.002;2023-08-06T10:42:27;3.53;;;1.45;;
48765;SDS011;65794;51.836;5.002;2023-08-06T10:47:42;3.17;;;1.00;;
48765;SDS011;65794;51.836;5.002;2023-08-06T10:50:14;4.70;;;0.80;;
48765;SDS011;65794;51.836;5.002;2023-08-06T10:52:43;6.30;;;1.42;;
48765;SDS011;65794;51.836;5.002;2023-08-06T10:55:10;2.42;;;1.00;;
48765;SDS011;65794;51.836;5.002;2023-08-06T10:57:37;13.30;;;1.02;;
48765;SDS011;65794;51.836;5.002;2023-08-06T11:00:05;3.50;;;0.90;;
48765;SDS011;65794;51.836;5.002;2023-08-06T11:02:42;3.25;;;0.98;;
48765;SDS011;65794;51.836;5.002;2023-08-06T11:05:11;3.38;;;0.80;;
48765;SDS011;65794;51.836;5.002;2023-08-06T11:07:38;3.67;;;0.88;;
48765;SDS011;65794;51.836;5.002;2023-08-06T11:10:06;3.25;;;0.90;;
48765;SDS011;65794;51.836;5.002;2023-08-06T11:12:33;4.95;;;0.90;;
48765;SDS011;65794;51.836;5.002;2023-08-06T11:15:01;3.22;;;0.77;;
48765;SDS011;65794;51.836;5.002;2023-08-06T11:17:30;4.43;;;0.90;;
48765;SDS011;65794;51.836;5.002;2023-08-06T11:19:59;4.25;;;0.80;;
48765;SDS011;65794;51.836;5.002;2023-08-06T11:22:26;2.38;;;0.70;;
48765;SDS011;65794;51.836;5.002;2023-08-06T11:24:53;6.28;;;1.13;;
48765;SDS011;65794;51.836;5.002;2023-08-06T11:27:20;4.68;;;0.93;;
48765;SDS011;65794;51.836;5.002;2023-08-06T11:29:47;2.55;;;0.68;;
48765;SDS011;65794;51.836;5.002;2023-08-06T11:32:14;2.40;;;0.60;;
48765;SDS011;65794;51.836;5.002;2023-08-06T11:34:43;2.85;;;0.80;;
48765;SDS011;65794;51.836;5.002;2023-08-06T11:37:10;2.17;;;0.63;;
48765;SDS011;65794;51.836;5.002;2023-08-06T11:39:38;3.40;;;0.60;;
48765;SDS011;65794;51.836;5.002;2023-08-06T11:42:05;1.63;;;0.57;;
48765;SDS011;65794;51.836;5.002;2023-08-06T11:44:33;1.88;;;0.60;;
48765;SDS011;65794;51.836;5.002;2023-08-06T11:47:02;1.80;;;0.60;;
48765;SDS011;65794;51.836;5.002;2023-08-06T11:54:42;2.00;;;0.60;;
48765;SDS011;65794;51.836;5.002;2023-08-06T11:57:10;2.40;;;0.85;;
48765;SDS011;65794;51.836;5.002;2023-08-06T11:59:37;1.73;;;0.60;;
48765;SDS011;65794;51.836;5.002;2023-08-06T12:02:07;1.17;;;0.55;;
48765;SDS011;65794;51.836;5.002;2023-08-06T12:04:57;1.50;;;0.50;;
48765;SDS011;65794;51.836;5.002;2023-08-06T12:07:31;1.90;;;0.50;;
48765;SDS011;65794;51.836;5.002;2023-08-06T12:09:58;3.78;;;0.60;;
48765;SDS011;65794;51.836;5.002;2023-08-06T12:12:25;4.60;;;0.95;;
48765;SDS011;65794;51.836;5.002;2023-08-06T12:14:53;2.22;;;0.55;;
48765;SDS011;65794;51.836;5.002;2023-08-06T12:17:20;1.80;;;0.50;;
48765;SDS011;65794;51.836;5.002;2023-08-06T12:19:47;2.08;;;0.73;;
48765;SDS011;65794;51.836;5.002;2023-08-06T12:22:15;2.63;;;0.60;;
48765;SDS011;65794;51.836;5.002;2023-08-06T12:24:42;3.78;;;0.70;;
48765;SDS011;65794;51.836;5.002;2023-08-06T12:27:09;2.53;;;0.60;;
48765;SDS011;65794;51.836;5.002;2023-08-06T12:29:43;2.50;;;0.73;;
48765;SDS011;65794;51.836;5.002;2023-08-06T12:32:11;3.47;;;0.70;;
48765;SDS011;65794;51.836;5.002;2023-08-06T12:34:38;2.35;;;0.40;;
48765;SDS011;65794;51.836;5.002;2023-08-06T12:37:18;3.47;;;0.52;;
48765;SDS011;65794;51.836;5.002;2023-08-06T12:39:46;6.25;;;0.50;;
48765;SDS011;65794;51.836;5.002;2023-08-06T12:42:12;6.22;;;0.80;;
48765;SDS011;65794;51.836;5.002;2023-08-06T12:44:39;2.08;;;0.50;;
48765;SDS011;65794;51.836;5.002;2023-08-06T12:47:07;3.17;;;0.63;;
48765;SDS011;65794;51.836;5.002;2023-08-06T12:49:34;4.65;;;0.52;;
48765;SDS011;65794;51.836;5.002;2023-08-06T12:52:01;1.63;;;0.40;;
48765;SDS011;65794;51.836;5.002;2023-08-06T12:54:28;2.15;;;0.30;;
48765;SDS011;65794;51.836;5.002;2023-08-06T12:56:55;1.63;;;0.40;;
48765;SDS011;65794;51.836;5.002;2023-08-06T12:59:22;1.20;;;0.40;;
48765;SDS011;65794;51.836;5.002;2023-08-06T13:01:49;2.13;;;0.40;;
48765;SDS011;65794;51.836;5.002;2023-08-06T13:04:16;2.45;;;0.30;;
48765;SDS011;65794;51.836;5.002;2023-08-06T13:06:48;2.05;;;0.40;;
48765;SDS011;65794;51.836;5.002;2023-08-06T13:09:15;0.70;;;0.20;;
48765;SDS011;65794;51.836;5.002;2023-08-06T13:11:42;2.63;;;0.40;;
48765;SDS011;65794;51.836;5.002;2023-08-06T13:14:13;0.60;;;0.25;;
48765;SDS011;65794;51.836;5.002;2023-08-06T13:16:40;2.67;;;0.40;;
48765;SDS011;65794;51.836;5.002;2023-08-06T13:19:08;1.65;;;0.40;;
48765;SDS011;65794;51.836;5.002;2023-08-06T13:24:08;2.70;;;0.40;;
48765;SDS011;65794;51.836;5.002;2023-08-06T13:26:35;1.85;;;0.40;;
48765;SDS011;65794;51.836;5.002;2023-08-06T13:29:02;1.60;;;0.30;;
48765;SDS011;65794;51.836;5.002;2023-08-06T13:31:29;2.53;;;0.50;;
48765;SDS011;65794;51.836;5.002;2023-08-06T13:33:56;0.73;;;0.20;;
48765;SDS011;65794;51.836;5.002;2023-08-06T13:36:25;4.10;;;0.25;;
48765;SDS011;65794;51.836;5.002;2023-08-06T13:38:52;0.77;;;0.30;;
48765;SDS011;65794;51.836;5.002;2023-08-06T13:41:19;0.98;;;0.30;;
48765;SDS011;65794;51.836;5.002;2023-08-06T13:43:46;1.65;;;0.30;;
48765;SDS011;65794;51.836;5.002;2023-08-06T13:46:14;1.58;;;0.38;;
48765;SDS011;65794;51.836;5.002;2023-08-06T13:48:46;2.53;;;0.30;;
48765;SDS011;65794;51.836;5.002;2023-08-06T13:51:13;4.68;;;0.40;;
48765;SDS011;65794;51.836;5.002;2023-08-06T13:53:40;3.13;;;0.47;;
48765;SDS011;65794;51.836;5.002;2023-08-06T13:56:08;2.50;;;0.32;;
48765;SDS011;65794;51.836;5.002;2023-08-06T13:58:37;2.08;;;0.30;;
48765;SDS011;65794;51.836;5.002;2023-08-06T14:01:04;2.80;;;0.60;;
48765;SDS011;65794;51.836;5.002;2023-08-06T14:03:31;1.83;;;0.32;;
48765;SDS011;65794;51.836;5.002;2023-08-06T14:05:58;1.20;;;0.38;;
48765;SDS011;65794;51.836;5.002;2023-08-06T14:08:25;1.05;;;0.40;;
48765;SDS011;65794;51.836;5.002;2023-08-06T14:10:52;1.50;;;0.43;;
48765;SDS011;65794;51.836;5.002;2023-08-06T14:13:21;2.30;;;0.40;;
48765;SDS011;65794;51.836;5.002;2023-08-06T14:15:48;1.55;;;0.52;;
48765;SDS011;65794;51.836;5.002;2023-08-06T14:18:15;1.20;;;0.40;;
48765;SDS011;65794;51.836;5.002;2023-08-06T14:20:42;1.77;;;0.35;;
48765;SDS011;65794;51.836;5.002;2023-08-06T14:23:09;1.25;;;0.50;;
48765;SDS011;65794;51.836;5.002;2023-08-06T14:25:37;1.33;;;0.43;;
48765;SDS011;65794;51.836;5.002;2023-08-06T14:28:04;1.20;;;0.50;;
48765;SDS011;65794;51.836;5.002;2023-08-06T14:30:33;1.05;;;0.43;;
48765;SDS011;65794;51.836;5.002;2023-08-06T14:33:01;2.35;;;0.40;;
48765;SDS011;65794;51.836;5.002;2023-08-06T14:35:48;2.70;;;0.47;;
48765;SDS011;65794;51.836;5.002;2023-08-06T14:38:15;1.65;;;0.55;;
48765;SDS011;65794;51.836;5.002;2023-08-06T14:40:43;5.22;;;0.60;;
48765;SDS011;65794;51.836;5.002;2023-08-06T14:43:10;2.33;;;0.57;;
48765;SDS011;65794;51.836;5.002;2023-08-06T14:45:40;6.38;;;0.55;;
48765;SDS011;65794;51.836;5.002;2023-08-06T14:48:08;4.72;;;0.60;;
48765;SDS011;65794;51.836;5.002;2023-08-06T14:50:34;5.72;;;0.43;;
48765;SDS011;65794;51.836;5.002;2023-08-06T14:53:02;3.35;;;0.65;;
48765;SDS011;65794;51.836;5.002;2023-08-06T14:55:31;6.47;;;0.77;;
48765;SDS011;65794;51.836;5.002;2023-08-06T14:57:58;3.47;;;0.50;;
48765;SDS011;65794;51.836;5.002;2023-08-06T15:00:25;4.90;;;0.80;;
48765;SDS011;65794;51.836;5.002;2023-08-06T15:02:52;3.40;;;0.73;;
48765;SDS011;65794;51.836;5.002;2023-08-06T15:05:19;3.90;;;0.45;;